sensor_id;sensor_type;location;lat;lon;timestamp;P1;durP1;ratioP1;P2;durP2;ratioP2
12871;SDS011;6504;53.766;9.626;2023-07-13T00:00:38;3.87;;;1.97;;
12871;SDS011;6504;53.766;9.626;2023-07-13T00:03:06;2.83;;;2.30;;
12871;SDS011;6504;53.766;9.626;2023-07-13T00:05:35;4.87;;;2.53;;
12871;SDS011;6504;53.766;9.626;2023-07-13T01:57:41;5.93;;;3.53;;
12871;SDS011;6504;53.766;9.626;2023-07-13T02:00:10;6.60;;;4.20;;
12871;SDS011;6504;53.766;9.626;2023-07-13T02:02:41;5.17;;;4.40;;
12871;SDS011;6504;53.766;9.626;2023-07-13T02:05:11;5.87;;;4.63;;
12871;SDS011;6504;53.766;9.626;2023-07-13T02:07:40;5.83;;;4.43;;
12871;SDS011;6504;53.766;9.626;2023-07-13T02:10:09;5.27;;;4.67;;
12871;SDS011;6504;53.766;9.626;2023-07-13T02:12:38;7.40;;;4.23;;
12871;SDS011;6504;53.766;9.626;2023-07-13T02:15:09;6.30;;;5.20;;
12871;SDS011;6504;53.766;9.626;2023-07-13T02:17:37;6.83;;;4.80;;
12871;SDS011;6504;53.766;9.626;2023-07-13T02:20:06;7.93;;;4.63;;
12871;SDS011;6504;53.766;9.626;2023-07-13T02:22:35;7.20;;;5.13;;
12871;SDS011;6504;53.766;9.626;2023-07-13T02:25:04;6.67;;;5.23;;
12871;SDS011;6504;53.766;9.626;2023-07-13T02:27:32;8.80;;;5.53;;
12871;SDS011;6504;53.766;9.626;2023-07-13T02:30:00;9.70;;;5.07;;
12871;SDS011;6504;53.766;9.626;2023-07-13T02:32:30;5.93;;;5.10;;
12871;SDS011;6504;53.766;9.626;2023-07-13T02:34:58;7.13;;;4.97;;
12871;SDS011;6504;53.766;9.626;2023-07-13T02:37:26;7.43;;;4.63;;
12871;SDS011;6504;53.766;9.626;2023-07-13T02:39:54;7.50;;;5.30;;
12871;SDS011;6504;53.766;9.626;2023-07-13T02:42:23;5.77;;;4.40;;
12871;SDS011;6504;53.766;9.626;2023-07-13T02:44:51;10.90;;;6.03;;
12871;SDS011;6504;53.766;9.626;2023-07-13T02:47:19;9.43;;;4.97;;
12871;SDS011;6504;53.766;9.626;2023-07-13T02:49:48;9.80;;;5.30;;
12871;SDS011;6504;53.766;9.626;2023-07-13T02:52:16;8.13;;;5.30;;
12871;SDS011;6504;53.766;9.626;2023-07-13T02:54:45;12.10;;;6.00;;
12871;SDS011;6504;53.766;9.626;2023-07-13T02:57:13;9.30;;;5.80;;
12871;SDS011;6504;53.766;9.626;2023-07-13T02:59:41;6.43;;;5.00;;
12871;SDS011;6504;53.766;9.626;2023-07-13T03:02:09;9.67;;;5.27;;
12871;SDS011;6504;53.766;9.626;2023-07-13T03:04:37;6.27;;;5.37;;
12871;SDS011;6504;53.766;9.626;2023-07-13T03:07:07;6.73;;;5.30;;
12871;SDS011;6504;53.766;9.626;2023-07-13T03:09:35;6.90;;;5.10;;
12871;SDS011;6504;53.766;9.626;2023-07-13T03:12:03;7.10;;;5.33;;
12871;SDS011;6504;53.766;9.626;2023-07-13T03:14:32;5.97;;;5.37;;
12871;SDS011;6504;53.766;9.626;2023-07-13T03:17:00;7.57;;;5.33;;
12871;SDS011;6504;53.766;9.626;2023-07-13T03:19:28;7.83;;;5.03;;
12871;SDS011;6504;53.766;9.626;2023-07-13T03:21:56;5.60;;;5.10;;
12871;SDS011;6504;53.766;9.626;2023-07-13T03:24:26;8.57;;;5.50;;
12871;SDS011;6504;53.766;9.626;2023-07-13T03:26:54;5.40;;;4.90;;
12871;SDS011;6504;53.766;9.626;2023-07-13T03:29:22;7.70;;;4.97;;
12871;SDS011;6504;53.766;9.626;2023-07-13T03:31:50;5.77;;;5.17;;
12871;SDS011;6504;53.766;9.626;2023-07-13T03:34:18;5.50;;;4.60;;
12871;SDS011;6504;53.766;9.626;2023-07-13T03:36:46;6.73;;;5.17;;
12871;SDS011;6504;53.766;9.626;2023-07-13T03:39:14;7.40;;;4.90;;
12871;SDS011;6504;53.766;9.626;2023-07-13T03:41:43;7.07;;;5.37;;
12871;SDS011;6504;53.766;9.626;2023-07-13T03:44:11;6.53;;;5.17;;
12871;SDS011;6504;53.766;9.626;2023-07-13T03:46:39;8.53;;;5.73;;
12871;SDS011;6504;53.766;9.626;2023-07-13T03:49:09;5.83;;;4.83;;
12871;SDS011;6504;53.766;9.626;2023-07-13T03:51:38;6.23;;;5.43;;
12871;SDS011;6504;53.766;9.626;2023-07-13T03:54:06;8.07;;;5.30;;
12871;SDS011;6504;53.766;9.626;2023-07-13T03:56:34;5.67;;;4.73;;
12871;SDS011;6504;53.766;9.626;2023-07-13T03:59:03;7.57;;;5.37;;
12871;SDS011;6504;53.766;9.626;2023-07-13T04:01:31;6.50;;;5.40;;
12871;SDS011;6504;53.766;9.626;2023-07-13T04:03:59;5.87;;;5.27;;
12871;SDS011;6504;53.766;9.626;2023-07-13T04:06:29;5.60;;;4.80;;
12871;SDS011;6504;53.766;9.626;2023-07-13T04:08:59;6.13;;;5.10;;
12871;SDS011;6504;53.766;9.626;2023-07-13T04:11:29;7.57;;;5.17;;
12871;SDS011;6504;53.766;9.626;2023-07-13T04:13:58;7.13;;;5.37;;
12871;SDS011;6504;53.766;9.626;2023-07-13T04:16:28;7.30;;;5.10;;
12871;SDS011;6504;53.766;9.626;2023-07-13T04:18:56;7.10;;;5.17;;
12871;SDS011;6504;53.766;9.626;2023-07-13T04:21:27;6.03;;;5.40;;
12871;SDS011;6504;53.766;9.626;2023-07-13T04:23:57;7.40;;;5.23;;
12871;SDS011;6504;53.766;9.626;2023-07-13T04:26:25;6.73;;;5.23;;
12871;SDS011;6504;53.766;9.626;2023-07-13T04:28:53;6.53;;;4.97;;
12871;SDS011;6504;53.766;9.626;2023-07-13T04:31:21;5.23;;;4.80;;
12871;SDS011;6504;53.766;9.626;2023-07-13T04:33:51;8.73;;;4.73;;
12871;SDS011;6504;53.766;9.626;2023-07-13T04:36:19;7.80;;;4.90;;
12871;SDS011;6504;53.766;9.626;2023-07-13T04:38:47;6.30;;;5.23;;
12871;SDS011;6504;53.766;9.626;2023-07-13T04:41:16;7.97;;;4.70;;
12871;SDS011;6504;53.766;9.626;2023-07-13T04:43:44;6.20;;;4.93;;
12871;SDS011;6504;53.766;9.626;2023-07-13T04:46:12;7.07;;;5.17;;
12871;SDS011;6504;53.766;9.626;2023-07-13T04:48:43;6.80;;;4.20;;
12871;SDS011;6504;53.766;9.626;2023-07-13T04:51:13;8.13;;;4.40;;
12871;SDS011;6504;53.766;9.626;2023-07-13T04:53:41;5.43;;;4.20;;
12871;SDS011;6504;53.766;9.626;2023-07-13T04:56:09;7.10;;;3.93;;
12871;SDS011;6504;53.766;9.626;2023-07-13T04:58:38;7.10;;;4.30;;
12871;SDS011;6504;53.766;9.626;2023-07-13T05:01:06;6.27;;;4.17;;
12871;SDS011;6504;53.766;9.626;2023-07-13T05:03:35;7.27;;;4.20;;
12871;SDS011;6504;53.766;9.626;2023-07-13T05:06:04;7.23;;;3.93;;
12871;SDS011;6504;53.766;9.626;2023-07-13T05:08:35;8.57;;;4.53;;
12871;SDS011;6504;53.766;9.626;2023-07-13T05:11:04;5.73;;;3.87;;
12871;SDS011;6504;53.766;9.626;2023-07-13T05:13:33;8.03;;;4.27;;
12871;SDS011;6504;53.766;9.626;2023-07-13T05:16:02;5.90;;;4.20;;
12871;SDS011;6504;53.766;9.626;2023-07-13T05:18:32;7.70;;;4.47;;
12871;SDS011;6504;53.766;9.626;2023-07-13T05:21:01;7.60;;;4.40;;
12871;SDS011;6504;53.766;9.626;2023-07-13T05:23:32;5.67;;;3.83;;
12871;SDS011;6504;53.766;9.626;2023-07-13T05:26:03;8.10;;;4.23;;
12871;SDS011;6504;53.766;9.626;2023-07-13T05:28:34;9.17;;;3.93;;
12871;SDS011;6504;53.766;9.626;2023-07-13T05:31:03;6.63;;;4.60;;
12871;SDS011;6504;53.766;9.626;2023-07-13T05:33:31;5.47;;;4.20;;
12871;SDS011;6504;53.766;9.626;2023-07-13T05:35:59;6.43;;;4.43;;
12871;SDS011;6504;53.766;9.626;2023-07-13T05:38:28;8.87;;;4.47;;
12871;SDS011;6504;53.766;9.626;2023-07-13T05:40:58;6.10;;;3.80;;
12871;SDS011;6504;53.766;9.626;2023-07-13T05:43:30;7.33;;;4.37;;
12871;SDS011;6504;53.766;9.626;2023-07-13T05:45:58;8.50;;;4.37;;
12871;SDS011;6504;53.766;9.626;2023-07-13T05:48:27;7.30;;;4.10;;
12871;SDS011;6504;53.766;9.626;2023-07-13T05:50:55;6.27;;;4.07;;
12871;SDS011;6504;53.766;9.626;2023-07-13T05:53:23;6.97;;;4.13;;
12871;SDS011;6504;53.766;9.626;2023-07-13T05:55:53;7.23;;;4.00;;
12871;SDS011;6504;53.766;9.626;2023-07-13T05:58:25;8.43;;;4.30;;
12871;SDS011;6504;53.766;9.626;2023-07-13T06:00:59;8.07;;;4.13;;
12871;SDS011;6504;53.766;9.626;2023-07-13T06:03:28;6.83;;;3.97;;
12871;SDS011;6504;53.766;9.626;2023-07-13T06:05:56;6.23;;;3.90;;
12871;SDS011;6504;53.766;9.626;2023-07-13T06:08:26;5.87;;;4.30;;
12871;SDS011;6504;53.766;9.626;2023-07-13T06:10:58;7.87;;;4.10;;
12871;SDS011;6504;53.766;9.626;2023-07-13T06:13:31;8.13;;;4.20;;
12871;SDS011;6504;53.766;9.626;2023-07-13T06:16:00;7.10;;;4.33;;
12871;SDS011;6504;53.766;9.626;2023-07-13T06:18:30;6.63;;;3.60;;
12871;SDS011;6504;53.766;9.626;2023-07-13T06:20:59;6.10;;;3.93;;
12871;SDS011;6504;53.766;9.626;2023-07-13T06:23:28;8.33;;;4.10;;
12871;SDS011;6504;53.766;9.626;2023-07-13T06:25:56;7.13;;;4.00;;
12871;SDS011;6504;53.766;9.626;2023-07-13T06:28:24;7.23;;;4.00;;
12871;SDS011;6504;53.766;9.626;2023-07-13T06:30:53;5.73;;;3.50;;
12871;SDS011;6504;53.766;9.626;2023-07-13T06:33:22;8.83;;;3.93;;
12871;SDS011;6504;53.766;9.626;2023-07-13T06:35:50;4.10;;;3.63;;
12871;SDS011;6504;53.766;9.626;2023-07-13T06:38:18;9.87;;;4.10;;
12871;SDS011;6504;53.766;9.626;2023-07-13T06:40:46;5.23;;;3.53;;
12871;SDS011;6504;53.766;9.626;2023-07-13T06:43:14;8.40;;;3.67;;
12871;SDS011;6504;53.766;9.626;2023-07-13T06:45:43;7.30;;;3.83;;
12871;SDS011;6504;53.766;9.626;2023-07-13T06:48:15;6.97;;;3.73;;
12871;SDS011;6504;53.766;9.626;2023-07-13T06:50:43;7.87;;;4.13;;
12871;SDS011;6504;53.766;9.626;2023-07-13T06:53:12;7.13;;;4.27;;
12871;SDS011;6504;53.766;9.626;2023-07-13T06:55:43;6.10;;;3.70;;
12871;SDS011;6504;53.766;9.626;2023-07-13T06:58:12;9.20;;;4.03;;
12871;SDS011;6504;53.766;9.626;2023-07-13T07:00:41;8.07;;;3.63;;
12871;SDS011;6504;53.766;9.626;2023-07-13T07:03:10;7.70;;;4.10;;
12871;SDS011;6504;53.766;9.626;2023-07-13T07:05:40;6.50;;;4.00;;
12871;SDS011;6504;53.766;9.626;2023-07-13T07:08:08;6.27;;;3.80;;
12871;SDS011;6504;53.766;9.626;2023-07-13T07:10:36;5.97;;;3.70;;
12871;SDS011;6504;53.766;9.626;2023-07-13T07:13:04;8.07;;;3.90;;
12871;SDS011;6504;53.766;9.626;2023-07-13T07:15:32;7.40;;;3.93;;
12871;SDS011;6504;53.766;9.626;2023-07-13T07:18:02;7.03;;;3.70;;
12871;SDS011;6504;53.766;9.626;2023-07-13T07:20:30;9.53;;;4.20;;
12871;SDS011;6504;53.766;9.626;2023-07-13T07:23:00;11.10;;;3.73;;
12871;SDS011;6504;53.766;9.626;2023-07-13T07:25:28;8.70;;;3.90;;
12871;SDS011;6504;53.766;9.626;2023-07-13T07:27:58;8.43;;;3.87;;
12871;SDS011;6504;53.766;9.626;2023-07-13T07:30:29;10.83;;;4.50;;
12871;SDS011;6504;53.766;9.626;2023-07-13T07:33:00;6.73;;;3.63;;
12871;SDS011;6504;53.766;9.626;2023-07-13T07:35:31;12.47;;;4.00;;
12871;SDS011;6504;53.766;9.626;2023-07-13T07:38:08;9.80;;;4.23;;
12871;SDS011;6504;53.766;9.626;2023-07-13T07:40:37;7.80;;;3.67;;
12871;SDS011;6504;53.766;9.626;2023-07-13T07:43:09;8.47;;;3.43;;
12871;SDS011;6504;53.766;9.626;2023-07-13T07:45:38;7.73;;;3.50;;
12871;SDS011;6504;53.766;9.626;2023-07-13T07:48:07;8.13;;;3.37;;
12871;SDS011;6504;53.766;9.626;2023-07-13T07:50:35;10.10;;;3.40;;
12871;SDS011;6504;53.766;9.626;2023-07-13T07:53:05;9.17;;;3.90;;
12871;SDS011;6504;53.766;9.626;2023-07-13T07:55:38;8.37;;;3.37;;
12871;SDS011;6504;53.766;9.626;2023-07-13T07:58:26;4.80;;;3.00;;
12871;SDS011;6504;53.766;9.626;2023-07-13T08:01:01;11.23;;;3.47;;
12871;SDS011;6504;53.766;9.626;2023-07-13T08:03:34;6.30;;;3.40;;
12871;SDS011;6504;53.766;9.626;2023-07-13T08:06:05;8.20;;;3.37;;
12871;SDS011;6504;53.766;9.626;2023-07-13T08:08:36;4.80;;;3.20;;
12871;SDS011;6504;53.766;9.626;2023-07-13T08:11:06;9.23;;;3.40;;
12871;SDS011;6504;53.766;9.626;2023-07-13T08:13:38;6.37;;;3.40;;
12871;SDS011;6504;53.766;9.626;2023-07-13T08:16:07;11.50;;;3.63;;
12871;SDS011;6504;53.766;9.626;2023-07-13T08:18:35;8.57;;;3.60;;
12871;SDS011;6504;53.766;9.626;2023-07-13T08:21:03;7.97;;;3.30;;
12871;SDS011;6504;53.766;9.626;2023-07-13T08:23:32;8.60;;;3.37;;
12871;SDS011;6504;53.766;9.626;2023-07-13T08:26:00;6.90;;;3.03;;
12871;SDS011;6504;53.766;9.626;2023-07-13T08:28:30;8.20;;;3.23;;
12871;SDS011;6504;53.766;9.626;2023-07-13T08:31:02;8.87;;;3.53;;
12871;SDS011;6504;53.766;9.626;2023-07-13T08:33:31;7.73;;;3.50;;
12871;SDS011;6504;53.766;9.626;2023-07-13T08:36:01;11.40;;;3.87;;
12871;SDS011;6504;53.766;9.626;2023-07-13T08:38:29;7.03;;;3.27;;
12871;SDS011;6504;53.766;9.626;2023-07-13T08:40:57;9.13;;;3.73;;
12871;SDS011;6504;53.766;9.626;2023-07-13T08:43:26;7.00;;;3.50;;
12871;SDS011;6504;53.766;9.626;2023-07-13T08:45:59;6.40;;;3.33;;
12871;SDS011;6504;53.766;9.626;2023-07-13T08:48:32;7.60;;;3.23;;
12871;SDS011;6504;53.766;9.626;2023-07-13T08:51:04;8.00;;;3.50;;
12871;SDS011;6504;53.766;9.626;2023-07-13T08:53:45;9.43;;;3.40;;
12871;SDS011;6504;53.766;9.626;2023-07-13T08:56:16;6.60;;;3.63;;
12871;SDS011;6504;53.766;9.626;2023-07-13T08:58:47;6.50;;;3.50;;
12871;SDS011;6504;53.766;9.626;2023-07-13T09:01:23;9.27;;;3.40;;
12871;SDS011;6504;53.766;9.626;2023-07-13T09:03:57;8.33;;;3.67;;
12871;SDS011;6504;53.766;9.626;2023-07-13T09:06:33;10.33;;;3.30;;
12871;SDS011;6504;53.766;9.626;2023-07-13T09:09:09;6.73;;;3.00;;
12871;SDS011;6504;53.766;9.626;2023-07-13T09:11:46;6.07;;;2.87;;
12871;SDS011;6504;53.766;9.626;2023-07-13T09:14:33;7.03;;;2.87;;
12871;SDS011;6504;53.766;9.626;2023-07-13T09:17:10;8.20;;;3.30;;
12871;SDS011;6504;53.766;9.626;2023-07-13T09:19:42;6.57;;;3.17;;
12871;SDS011;6504;53.766;9.626;2023-07-13T09:22:14;4.73;;;3.07;;
12871;SDS011;6504;53.766;9.626;2023-07-13T09:24:50;5.17;;;2.90;;
12871;SDS011;6504;53.766;9.626;2023-07-13T09:27:25;6.23;;;3.03;;
12871;SDS011;6504;53.766;9.626;2023-07-13T09:29:58;4.80;;;2.93;;
12871;SDS011;6504;53.766;9.626;2023-07-13T09:32:36;5.77;;;3.40;;
12871;SDS011;6504;53.766;9.626;2023-07-13T09:35:09;8.10;;;3.53;;
12871;SDS011;6504;53.766;9.626;2023-07-13T09:37:38;5.97;;;3.13;;
12871;SDS011;6504;53.766;9.626;2023-07-13T09:40:08;5.23;;;2.90;;
12871;SDS011;6504;53.766;9.626;2023-07-13T09:42:49;7.77;;;3.37;;
12871;SDS011;6504;53.766;9.626;2023-07-13T09:45:17;6.27;;;2.90;;
12871;SDS011;6504;53.766;9.626;2023-07-13T09:48:03;6.83;;;3.00;;
12871;SDS011;6504;53.766;9.626;2023-07-13T09:50:34;7.20;;;2.80;;
12871;SDS011;6504;53.766;9.626;2023-07-13T09:53:03;4.80;;;2.90;;
12871;SDS011;6504;53.766;9.626;2023-07-13T09:55:31;7.60;;;2.67;;
12871;SDS011;6504;53.766;9.626;2023-07-13T09:58:08;6.87;;;3.03;;
12871;SDS011;6504;53.766;9.626;2023-07-13T10:00:38;7.07;;;3.17;;
12871;SDS011;6504;53.766;9.626;2023-07-13T10:03:16;9.80;;;3.60;;
12871;SDS011;6504;53.766;9.626;2023-07-13T10:05:48;8.33;;;3.57;;
12871;SDS011;6504;53.766;9.626;2023-07-13T10:08:18;5.30;;;3.23;;
12871;SDS011;6504;53.766;9.626;2023-07-13T10:10:57;7.00;;;2.73;;
12871;SDS011;6504;53.766;9.626;2023-07-13T10:13:28;6.13;;;2.73;;
12871;SDS011;6504;53.766;9.626;2023-07-13T10:16:00;4.63;;;3.00;;
12871;SDS011;6504;53.766;9.626;2023-07-13T10:18:38;6.07;;;3.30;;
12871;SDS011;6504;53.766;9.626;2023-07-13T10:21:11;6.40;;;3.40;;
12871;SDS011;6504;53.766;9.626;2023-07-13T10:23:45;8.73;;;3.00;;
12871;SDS011;6504;53.766;9.626;2023-07-13T10:26:19;6.23;;;3.13;;
12871;SDS011;6504;53.766;9.626;2023-07-13T10:28:52;5.20;;;2.27;;
12871;SDS011;6504;53.766;9.626;2023-07-13T10:31:23;2.00;;;1.73;;
12871;SDS011;6504;53.766;9.626;2023-07-13T10:33:53;4.70;;;1.60;;
12871;SDS011;6504;53.766;9.626;2023-07-13T10:36:26;3.73;;;1.90;;
12871;SDS011;6504;53.766;9.626;2023-07-13T10:39:02;2.20;;;1.53;;
12871;SDS011;6504;53.766;9.626;2023-07-13T10:41:34;3.43;;;1.57;;
12871;SDS011;6504;53.766;9.626;2023-07-13T10:44:05;3.77;;;1.37;;
12871;SDS011;6504;53.766;9.626;2023-07-13T10:46:53;2.57;;;1.20;;
12871;SDS011;6504;53.766;9.626;2023-07-13T10:49:25;3.03;;;1.30;;
12871;SDS011;6504;53.766;9.626;2023-07-13T10:51:55;2.30;;;1.37;;
12871;SDS011;6504;53.766;9.626;2023-07-13T10:54:26;4.00;;;1.50;;
12871;SDS011;6504;53.766;9.626;2023-07-13T10:57:07;4.17;;;1.40;;
12871;SDS011;6504;53.766;9.626;2023-07-13T10:59:48;3.33;;;1.60;;
12871;SDS011;6504;53.766;9.626;2023-07-13T11:02:40;3.00;;;1.50;;
12871;SDS011;6504;53.766;9.626;2023-07-13T11:05:17;2.30;;;1.30;;
12871;SDS011;6504;53.766;9.626;2023-07-13T11:07:54;3.93;;;1.43;;
12871;SDS011;6504;53.766;9.626;2023-07-13T11:10:46;3.53;;;1.60;;
12871;SDS011;6504;53.766;9.626;2023-07-13T11:13:37;5.70;;;1.60;;
12871;SDS011;6504;53.766;9.626;2023-07-13T11:19:25;5.20;;;2.30;;
12871;SDS011;6504;53.766;9.626;2023-07-13T11:22:15;5.50;;;2.10;;
12871;SDS011;6504;53.766;9.626;2023-07-13T11:24:52;4.83;;;2.50;;
12871;SDS011;6504;53.766;9.626;2023-07-13T11:27:38;10.33;;;3.40;;
12871;SDS011;6504;53.766;9.626;2023-07-13T11:30:21;5.57;;;2.30;;
12871;SDS011;6504;53.766;9.626;2023-07-13T11:33:01;6.00;;;2.20;;
12871;SDS011;6504;53.766;9.626;2023-07-13T11:35:45;4.93;;;2.27;;
12871;SDS011;6504;53.766;9.626;2023-07-13T11:38:31;5.07;;;2.10;;
12871;SDS011;6504;53.766;9.626;2023-07-13T11:41:04;3.67;;;2.00;;
12871;SDS011;6504;53.766;9.626;2023-07-13T11:43:34;2.97;;;1.87;;
12871;SDS011;6504;53.766;9.626;2023-07-13T11:46:12;5.27;;;2.20;;
12871;SDS011;6504;53.766;9.626;2023-07-13T11:48:41;4.80;;;2.03;;
12871;SDS011;6504;53.766;9.626;2023-07-13T11:51:14;4.77;;;2.20;;
12871;SDS011;6504;53.766;9.626;2023-07-13T11:53:49;4.87;;;2.17;;
12871;SDS011;6504;53.766;9.626;2023-07-13T11:56:22;3.97;;;2.13;;
12871;SDS011;6504;53.766;9.626;2023-07-13T11:58:52;3.07;;;2.00;;
12871;SDS011;6504;53.766;9.626;2023-07-13T12:01:23;4.67;;;2.30;;
12871;SDS011;6504;53.766;9.626;2023-07-13T12:03:55;5.23;;;2.67;;
12871;SDS011;6504;53.766;9.626;2023-07-13T12:06:26;3.10;;;2.00;;
12871;SDS011;6504;53.766;9.626;2023-07-13T12:08:57;4.37;;;2.10;;
12871;SDS011;6504;53.766;9.626;2023-07-13T12:11:26;4.97;;;2.07;;
12871;SDS011;6504;53.766;9.626;2023-07-13T12:13:55;4.00;;;2.37;;
12871;SDS011;6504;53.766;9.626;2023-07-13T12:16:25;3.70;;;2.07;;
12871;SDS011;6504;53.766;9.626;2023-07-13T12:18:56;4.73;;;2.20;;
12871;SDS011;6504;53.766;9.626;2023-07-13T12:21:27;5.47;;;2.47;;
12871;SDS011;6504;53.766;9.626;2023-07-13T12:24:00;4.37;;;2.40;;
12871;SDS011;6504;53.766;9.626;2023-07-13T12:26:30;4.47;;;2.23;;
12871;SDS011;6504;53.766;9.626;2023-07-13T12:28:59;2.67;;;2.40;;
12871;SDS011;6504;53.766;9.626;2023-07-13T12:31:34;5.37;;;2.40;;
12871;SDS011;6504;53.766;9.626;2023-07-13T12:34:06;6.70;;;2.50;;
12871;SDS011;6504;53.766;9.626;2023-07-13T12:36:37;4.50;;;2.20;;
12871;SDS011;6504;53.766;9.626;2023-07-13T12:39:17;5.97;;;2.67;;
12871;SDS011;6504;53.766;9.626;2023-07-13T12:41:47;4.93;;;2.30;;
12871;SDS011;6504;53.766;9.626;2023-07-13T12:44:17;4.03;;;2.20;;
12871;SDS011;6504;53.766;9.626;2023-07-13T12:46:53;7.00;;;2.30;;
12871;SDS011;6504;53.766;9.626;2023-07-13T12:49:24;3.87;;;1.97;;
12871;SDS011;6504;53.766;9.626;2023-07-13T12:51:59;4.73;;;2.10;;
12871;SDS011;6504;53.766;9.626;2023-07-13T12:54:31;3.63;;;2.23;;
12871;SDS011;6504;53.766;9.626;2023-07-13T12:57:00;4.60;;;2.27;;
12871;SDS011;6504;53.766;9.626;2023-07-13T12:59:30;4.53;;;2.07;;
12871;SDS011;6504;53.766;9.626;2023-07-13T13:02:05;4.87;;;2.00;;
12871;SDS011;6504;53.766;9.626;2023-07-13T13:04:54;3.53;;;1.90;;
12871;SDS011;6504;53.766;9.626;2023-07-13T13:07:23;3.33;;;2.20;;
12871;SDS011;6504;53.766;9.626;2023-07-13T13:09:53;2.73;;;1.83;;
12871;SDS011;6504;53.766;9.626;2023-07-13T13:12:21;4.23;;;2.00;;
12871;SDS011;6504;53.766;9.626;2023-07-13T13:14:50;4.17;;;2.00;;
12871;SDS011;6504;53.766;9.626;2023-07-13T13:17:19;3.23;;;2.10;;
12871;SDS011;6504;53.766;9.626;2023-07-13T13:19:50;5.27;;;2.13;;
12871;SDS011;6504;53.766;9.626;2023-07-13T13:22:20;4.07;;;2.03;;
12871;SDS011;6504;53.766;9.626;2023-07-13T13:24:48;4.53;;;2.20;;
12871;SDS011;6504;53.766;9.626;2023-07-13T13:27:18;4.87;;;1.93;;
12871;SDS011;6504;53.766;9.626;2023-07-13T13:29:49;2.93;;;1.87;;
12871;SDS011;6504;53.766;9.626;2023-07-13T13:32:18;3.37;;;1.80;;
12871;SDS011;6504;53.766;9.626;2023-07-13T13:34:46;3.33;;;1.67;;
12871;SDS011;6504;53.766;9.626;2023-07-13T13:37:17;3.73;;;1.80;;
12871;SDS011;6504;53.766;9.626;2023-07-13T13:39:47;2.77;;;1.80;;
12871;SDS011;6504;53.766;9.626;2023-07-13T13:42:35;2.43;;;1.57;;
12871;SDS011;6504;53.766;9.626;2023-07-13T13:45:03;2.43;;;1.90;;
12871;SDS011;6504;53.766;9.626;2023-07-13T13:47:32;3.17;;;1.50;;
12871;SDS011;6504;53.766;9.626;2023-07-13T13:50:09;2.97;;;1.57;;
12871;SDS011;6504;53.766;9.626;2023-07-13T13:52:41;2.77;;;1.63;;
12871;SDS011;6504;53.766;9.626;2023-07-13T13:55:13;2.63;;;1.60;;
12871;SDS011;6504;53.766;9.626;2023-07-13T13:57:44;1.63;;;1.33;;
12871;SDS011;6504;53.766;9.626;2023-07-13T14:00:13;2.80;;;1.40;;
12871;SDS011;6504;53.766;9.626;2023-07-13T14:02:44;2.33;;;1.20;;
12871;SDS011;6504;53.766;9.626;2023-07-13T14:05:17;2.00;;;1.30;;
12871;SDS011;6504;53.766;9.626;2023-07-13T14:07:49;2.33;;;1.37;;
12871;SDS011;6504;53.766;9.626;2023-07-13T14:10:17;1.90;;;1.37;;
12871;SDS011;6504;53.766;9.626;2023-07-13T14:12:48;2.03;;;1.10;;
12871;SDS011;6504;53.766;9.626;2023-07-13T14:15:20;2.33;;;1.20;;
12871;SDS011;6504;53.766;9.626;2023-07-13T14:17:50;3.30;;;1.50;;
12871;SDS011;6504;53.766;9.626;2023-07-13T14:20:19;3.33;;;1.37;;
12871;SDS011;6504;53.766;9.626;2023-07-13T14:22:50;2.20;;;1.60;;
12871;SDS011;6504;53.766;9.626;2023-07-13T14:25:19;3.03;;;1.70;;
12871;SDS011;6504;53.766;9.626;2023-07-13T14:27:52;2.93;;;1.70;;
12871;SDS011;6504;53.766;9.626;2023-07-13T14:30:25;1.93;;;1.70;;
12871;SDS011;6504;53.766;9.626;2023-07-13T14:32:53;2.13;;;1.60;;
12871;SDS011;6504;53.766;9.626;2023-07-13T14:35:21;4.43;;;2.10;;
12871;SDS011;6504;53.766;9.626;2023-07-13T14:37:50;3.10;;;1.90;;
12871;SDS011;6504;53.766;9.626;2023-07-13T14:40:25;3.43;;;1.60;;
12871;SDS011;6504;53.766;9.626;2023-07-13T14:42:57;2.27;;;1.50;;
12871;SDS011;6504;53.766;9.626;2023-07-13T14:45:25;3.87;;;1.30;;
12871;SDS011;6504;53.766;9.626;2023-07-13T14:47:55;2.30;;;1.37;;
12871;SDS011;6504;53.766;9.626;2023-07-13T14:50:24;5.27;;;1.70;;
12871;SDS011;6504;53.766;9.626;2023-07-13T14:52:57;2.57;;;1.43;;
12871;SDS011;6504;53.766;9.626;2023-07-13T14:55:25;3.60;;;1.60;;
12871;SDS011;6504;53.766;9.626;2023-07-13T14:57:53;2.23;;;1.40;;
12871;SDS011;6504;53.766;9.626;2023-07-13T15:00:25;3.40;;;1.80;;
12871;SDS011;6504;53.766;9.626;2023-07-13T15:02:54;2.90;;;1.57;;
12871;SDS011;6504;53.766;9.626;2023-07-13T15:05:27;3.80;;;1.50;;
12871;SDS011;6504;53.766;9.626;2023-07-13T15:07:57;3.23;;;1.43;;
12871;SDS011;6504;53.766;9.626;2023-07-13T15:10:27;2.10;;;1.40;;
12871;SDS011;6504;53.766;9.626;2023-07-13T15:12:58;2.10;;;1.20;;
12871;SDS011;6504;53.766;9.626;2023-07-13T15:15:31;2.90;;;1.33;;
12871;SDS011;6504;53.766;9.626;2023-07-13T15:18:01;3.10;;;1.53;;
12871;SDS011;6504;53.766;9.626;2023-07-13T15:20:30;2.47;;;1.40;;
12871;SDS011;6504;53.766;9.626;2023-07-13T15:23:01;1.87;;;1.00;;
12871;SDS011;6504;53.766;9.626;2023-07-13T15:25:31;2.60;;;1.30;;
12871;SDS011;6504;53.766;9.626;2023-07-13T15:28:00;3.57;;;1.30;;
12871;SDS011;6504;53.766;9.626;2023-07-13T15:30:29;5.87;;;1.30;;
12871;SDS011;6504;53.766;9.626;2023-07-13T15:33:08;2.40;;;1.33;;
12871;SDS011;6504;53.766;9.626;2023-07-13T15:35:39;3.03;;;1.30;;
12871;SDS011;6504;53.766;9.626;2023-07-13T15:38:15;3.13;;;1.43;;
12871;SDS011;6504;53.766;9.626;2023-07-13T15:40:45;2.87;;;1.13;;
12871;SDS011;6504;53.766;9.626;2023-07-13T15:43:14;1.90;;;1.10;;
12871;SDS011;6504;53.766;9.626;2023-07-13T15:45:44;1.60;;;1.00;;
12871;SDS011;6504;53.766;9.626;2023-07-13T15:48:15;3.47;;;1.30;;
12871;SDS011;6504;53.766;9.626;2023-07-13T15:50:45;5.13;;;1.57;;
12871;SDS011;6504;53.766;9.626;2023-07-13T15:53:15;2.30;;;1.43;;
12871;SDS011;6504;53.766;9.626;2023-07-13T15:55:47;3.87;;;1.30;;
12871;SDS011;6504;53.766;9.626;2023-07-13T15:58:15;4.33;;;1.50;;
12871;SDS011;6504;53.766;9.626;2023-07-13T16:00:46;4.00;;;1.63;;
12871;SDS011;6504;53.766;9.626;2023-07-13T16:03:17;2.93;;;1.30;;
12871;SDS011;6504;53.766;9.626;2023-07-13T16:05:46;5.07;;;1.30;;
12871;SDS011;6504;53.766;9.626;2023-07-13T16:08:16;5.70;;;1.43;;
12871;SDS011;6504;53.766;9.626;2023-07-13T16:10:51;3.67;;;1.37;;
12871;SDS011;6504;53.766;9.626;2023-07-13T16:13:20;2.97;;;1.30;;
12871;SDS011;6504;53.766;9.626;2023-07-13T16:15:52;2.73;;;1.23;;
12871;SDS011;6504;53.766;9.626;2023-07-13T16:18:23;4.23;;;1.40;;
12871;SDS011;6504;53.766;9.626;2023-07-13T16:20:51;3.83;;;1.60;;
12871;SDS011;6504;53.766;9.626;2023-07-13T16:23:23;4.83;;;1.40;;
12871;SDS011;6504;53.766;9.626;2023-07-13T16:25:51;4.90;;;1.60;;
12871;SDS011;6504;53.766;9.626;2023-07-13T16:28:20;2.73;;;1.30;;
12871;SDS011;6504;53.766;9.626;2023-07-13T16:30:49;4.40;;;1.50;;
12871;SDS011;6504;53.766;9.626;2023-07-13T16:33:19;4.83;;;1.63;;
12871;SDS011;6504;53.766;9.626;2023-07-13T16:35:48;4.07;;;1.33;;
12871;SDS011;6504;53.766;9.626;2023-07-13T16:38:17;4.47;;;1.73;;
12871;SDS011;6504;53.766;9.626;2023-07-13T16:40:47;4.60;;;1.60;;
12871;SDS011;6504;53.766;9.626;2023-07-13T16:43:17;3.67;;;1.30;;
12871;SDS011;6504;53.766;9.626;2023-07-13T16:45:48;6.33;;;1.80;;
12871;SDS011;6504;53.766;9.626;2023-07-13T16:48:20;3.60;;;1.70;;
12871;SDS011;6504;53.766;9.626;2023-07-13T16:50:51;4.40;;;1.80;;
12871;SDS011;6504;53.766;9.626;2023-07-13T16:53:22;4.43;;;1.93;;
12871;SDS011;6504;53.766;9.626;2023-07-13T16:55:52;3.20;;;1.90;;
12871;SDS011;6504;53.766;9.626;2023-07-13T16:58:22;3.37;;;1.70;;
12871;SDS011;6504;53.766;9.626;2023-07-13T17:00:52;4.30;;;1.93;;
12871;SDS011;6504;53.766;9.626;2023-07-13T17:03:22;4.00;;;1.90;;
12871;SDS011;6504;53.766;9.626;2023-07-13T17:05:53;3.47;;;1.70;;
12871;SDS011;6504;53.766;9.626;2023-07-13T17:08:26;3.23;;;1.90;;
12871;SDS011;6504;53.766;9.626;2023-07-13T17:10:59;4.67;;;1.67;;
12871;SDS011;6504;53.766;9.626;2023-07-13T17:13:28;3.90;;;1.50;;
12871;SDS011;6504;53.766;9.626;2023-07-13T17:15:57;4.07;;;1.67;;